Accueil
METAR-TAF:

METAR-TAF

Aéroports :

El Obeid, Soudan

latitude: 13-10N, longitude: 030-14E, altitude: 574 m

METAR: absent

Heure: 19:57 (17:57 UTC)

Prévision

Le bulletin a été fait il y a 6 heures et 57 minutes, à 11:00 UTC
Prévision valable du 23 à 12 UTC au 24 à 18 UTC
Vent 12 kt de sud-ouest avec des rafales jusqu'à 22 kt
Visibilité 10 km ou plus
Quelques nuages à une hauteur de 4000 ft
Nuages épars à une hauteur de 14000 ft
Probabilité 30% :
Temporairement
du 23 à 14 UTC au 23 à 21 UTC
Visibilité: 6000 m
Quelques nuages à une hauteur de 4500 ft, Cumulonimbus.
orage, pluie

TAF: HSOB 231100Z 2312/2418 22012G22KT 9999 FEW040 SCT140 PROB30 TEMPO 2314/2321 6000 TSRA FEW045CB

Observations et prévisions météorologiques de plus de 4000 aéroports (messages METAR et TAF).

Les stations disponibles sont représentées par des disques jaunes et rouges sur la carte.

Passer la souris dessus pour voir le nom de la station.

Cliquer dessus pour voir les observations et prévisions météorologiques.

Pour changer de carte: cliquez sur les boutons verts avec une croix noire pour zoomer, sur le bouton vert avec un tiret pour effectuer un zoom arrière, ou sur les flèches vertes pour les cartes adjacentes.


METAR-TAF: